createdAt,value
2019-05-06T00:01:00.687Z,2.20
2019-05-06T00:06:07.565Z,2.37
2019-05-06T00:11:14.184Z,2.93
2019-05-06T00:16:21.259Z,2.67
2019-05-06T00:21:36.096Z,2.70
2019-05-06T00:27:00.306Z,2.37
2019-05-06T00:32:08.495Z,2.83
2019-05-06T00:37:14.607Z,3.13
2019-05-06T00:42:34.730Z,2.77
2019-05-06T00:47:39.719Z,3.35
2019-05-06T00:52:45.311Z,3.10
2019-05-06T00:57:50.919Z,2.53
2019-05-06T01:02:56.510Z,2.67
2019-05-06T01:08:04.019Z,2.70
2019-05-06T01:13:24.174Z,4.10
2019-05-06T01:18:29.843Z,3.05
2019-05-06T01:23:35.460Z,2.80
2019-05-06T01:28:41.153Z,2.57
2019-05-06T01:33:46.653Z,2.73
2019-05-06T01:39:07.393Z,2.43
2019-05-06T01:44:13.645Z,2.70
2019-05-06T01:49:19.324Z,2.87
2019-05-06T01:54:25.409Z,2.90
2019-05-06T01:59:31.336Z,3.10
2019-05-06T02:04:36.900Z,2.83
2019-05-06T02:09:44.592Z,3.42
2019-05-06T02:14:49.617Z,4.00
2019-05-06T02:19:55.420Z,3.63
2019-05-06T02:25:06.066Z,3.97
2019-05-06T02:30:20.017Z,3.90
2019-05-06T02:35:34.457Z,3.50
2019-05-06T02:40:39.084Z,4.10
2019-05-06T02:45:44.665Z,3.43
2019-05-06T02:50:58.061Z,3.87
2019-05-06T02:56:04.351Z,4.03
2019-05-06T03:01:10.055Z,4.27
2019-05-06T03:06:15.827Z,4.50
2019-05-06T03:11:23.980Z,4.17
2019-05-06T03:16:28.678Z,3.97
2019-05-06T03:21:47.046Z,4.12
2019-05-06T03:26:56.947Z,4.20
2019-05-06T03:32:06.107Z,4.00
2019-05-06T03:37:08.925Z,4.40
2019-05-06T03:42:16.764Z,3.70
2019-05-06T03:47:34.454Z,3.90
2019-05-06T03:52:42.918Z,4.43
2019-05-06T03:57:49.777Z,4.80
2019-05-06T04:02:55.272Z,4.63
2019-05-06T04:08:03.855Z,4.90
2019-05-06T04:13:13.371Z,4.20
2019-05-06T04:18:19.137Z,4.40
2019-05-06T04:23:33.699Z,3.90
2019-05-06T04:28:39.701Z,3.80
2019-05-06T04:34:03.461Z,4.10
2019-05-06T04:38:54.008Z,4.10
2019-05-06T04:44:02.919Z,3.93
2019-05-06T04:49:10.877Z,4.27
2019-05-06T04:54:15.426Z,4.00
2019-05-06T04:59:23.182Z,4.17
2019-05-06T05:04:32.649Z,3.90
2019-05-06T05:09:36.057Z,4.33
2019-05-06T05:14:51.946Z,4.40
2019-05-06T05:19:57.875Z,4.23
2019-05-06T05:25:03.660Z,4.03
2019-05-06T05:30:09.740Z,3.60
2019-05-06T05:35:15.357Z,3.07
2019-05-06T05:40:22.522Z,3.40
2019-05-06T05:45:28.814Z,3.23
2019-05-06T05:50:37.997Z,3.10
2019-05-06T05:55:43.491Z,3.40
2019-05-06T06:00:49.286Z,3.23
2019-05-06T06:05:54.999Z,3.27
2019-05-06T06:11:05.873Z,2.87
2019-05-06T06:16:23.252Z,3.47
2019-05-06T06:21:33.135Z,3.40
2019-05-06T06:26:38.870Z,3.17
2019-05-06T06:31:52.426Z,3.03
2019-05-06T06:37:17.046Z,2.43
2019-05-06T06:42:22.968Z,3.20
2019-05-06T06:47:28.540Z,2.53
2019-05-06T06:52:34.030Z,2.37
2019-05-06T06:57:51.909Z,2.73
2019-05-06T07:03:02.727Z,2.40
2019-05-06T07:08:08.766Z,2.60
2019-05-06T07:13:16.694Z,2.73
2019-05-06T07:18:22.723Z,3.37
2019-05-06T07:23:28.970Z,4.03
2019-05-06T07:28:34.904Z,3.60
2019-05-06T07:33:42.872Z,4.62
2019-05-06T07:38:52.748Z,2.40
2019-05-06T07:44:08.691Z,2.03
2019-05-06T07:49:14.586Z,2.10
2019-05-06T07:54:22.014Z,2.60
2019-05-06T07:59:27.475Z,2.30
2019-05-06T08:04:33.176Z,2.07
2019-05-06T08:09:38.859Z,2.43
2019-05-06T08:14:44.807Z,1.53
2019-05-06T08:19:52.746Z,2.07
2019-05-06T08:24:57.877Z,2.37
2019-05-06T08:30:03.722Z,1.73
2019-05-06T08:35:10.086Z,2.20
2019-05-06T08:40:17.267Z,1.63
2019-05-06T08:45:22.959Z,2.10
2019-05-06T08:50:35.676Z,2.03
2019-05-06T08:55:42.335Z,1.55
2019-05-06T09:00:57.467Z,2.23
2019-05-06T09:06:03.253Z,2.50
2019-05-06T09:11:09.143Z,1.70
2019-05-06T09:16:17.659Z,1.90
2019-05-06T09:21:23.242Z,1.50
2019-05-06T09:26:39.219Z,1.40
2019-05-06T09:31:47.721Z,2.20
2019-05-06T09:37:13.419Z,1.57
2019-05-06T09:42:19.913Z,1.40
2019-05-06T09:47:38.907Z,1.73
2019-05-06T09:52:44.532Z,1.67
2019-05-06T09:57:59.091Z,1.80
2019-05-06T10:03:08.163Z,1.87
2019-05-06T10:08:13.939Z,2.20
2019-05-06T10:13:19.935Z,2.13
2019-05-06T10:18:25.739Z,2.33
2019-05-06T10:23:32.778Z,2.10
2019-05-06T10:28:46.060Z,2.10
2019-05-06T10:33:59.990Z,1.80
2019-05-06T10:39:09.852Z,2.20
2019-05-06T10:44:34.997Z,1.63
2019-05-06T10:49:42.077Z,2.00
2019-05-06T10:54:47.734Z,1.70
2019-05-06T10:59:53.443Z,1.70
2019-05-06T11:04:59.146Z,2.03
2019-05-06T11:10:05.394Z,3.50
2019-05-06T11:15:12.403Z,1.70
2019-05-06T11:20:18.335Z,1.45
2019-05-06T11:25:25.143Z,1.52
2019-05-06T11:30:39.064Z,1.40
2019-05-06T11:35:53.226Z,1.80
2019-05-06T11:40:58.829Z,1.53
2019-05-06T11:46:04.767Z,1.60
2019-05-06T11:51:12.789Z,1.90
2019-05-06T11:56:18.919Z,2.07
2019-05-06T12:01:27.981Z,2.10
2019-05-06T12:06:34.597Z,2.00
2019-05-06T12:11:42.943Z,1.72
2019-05-06T12:16:47.674Z,1.80
2019-05-06T12:21:53.535Z,1.83
2019-05-06T12:26:59.218Z,1.97
2019-05-06T12:32:23.655Z,4.27
2019-05-06T12:37:29.566Z,5.50
2019-05-06T12:42:38.750Z,2.00
2019-05-06T12:47:53.491Z,2.07
2019-05-06T12:52:59.504Z,2.03
2019-05-06T12:58:05.290Z,2.23
2019-05-06T13:03:12.670Z,2.60
2019-05-06T13:08:20.834Z,2.33
2019-05-06T13:13:25.717Z,2.20
2019-05-06T13:18:32.739Z,2.27
2019-05-06T13:23:49.504Z,2.50
2019-05-06T13:28:59.178Z,2.30
2019-05-06T13:34:07.328Z,2.20
2019-05-06T13:39:15.077Z,1.87
2019-05-06T13:44:22.737Z,2.33
2019-05-06T13:55:02.673Z,2.93
2019-05-06T14:00:08.934Z,2.83
2019-05-06T14:05:14.737Z,3.33
2019-05-06T14:10:22.232Z,3.70
2019-05-06T14:15:28.213Z,3.70
2019-05-06T14:20:33.898Z,4.08
2019-05-06T14:25:58.252Z,3.63
2019-05-06T14:31:07.919Z,3.30
2019-05-06T14:36:13.648Z,3.17
2019-05-06T14:41:26.806Z,3.42
2019-05-06T14:46:48.120Z,4.47
2019-05-06T14:51:53.876Z,3.33
2019-05-06T14:57:05.206Z,3.23
2019-05-06T15:02:13.051Z,3.47
2019-05-06T15:07:18.328Z,4.00
2019-05-06T15:12:24.126Z,2.87
2019-05-06T15:17:33.129Z,3.10
2019-05-06T15:22:38.993Z,2.80
2019-05-06T15:27:44.701Z,3.20
2019-05-06T15:32:52.817Z,3.37
2019-05-06T15:38:02.227Z,4.37
2019-05-06T15:43:08.103Z,3.17
2019-05-06T15:48:13.963Z,3.27
2019-05-06T15:53:19.642Z,3.70
2019-05-06T15:58:25.291Z,2.87
2019-05-06T16:03:33.434Z,3.63
2019-05-06T16:08:38.431Z,2.67
2019-05-06T16:13:45.098Z,3.50
2019-05-06T16:18:51.107Z,3.37
2019-05-06T16:24:03.155Z,3.57
2019-05-06T16:29:08.698Z,3.87
2019-05-06T16:34:14.619Z,3.93
2019-05-06T16:39:22.877Z,3.67
2019-05-06T16:44:47.786Z,3.67
2019-05-06T16:49:54.103Z,3.50
2019-05-06T16:54:59.959Z,3.70
2019-05-06T17:00:07.512Z,3.93
2019-05-06T17:05:22.417Z,3.77
2019-05-06T17:10:28.279Z,3.70
2019-05-06T17:15:34.008Z,3.83
2019-05-06T17:20:39.758Z,2.40
2019-05-06T17:25:45.530Z,4.53
2019-05-06T17:30:59.034Z,2.20
2019-05-06T17:36:06.005Z,2.70
2019-05-06T17:41:12.343Z,3.27
2019-05-06T17:46:22.254Z,3.43
2019-05-06T17:51:33.841Z,3.67
2019-05-06T17:56:41.871Z,2.93
2019-05-06T18:01:49.955Z,2.27
2019-05-06T18:06:55.685Z,3.00
2019-05-06T18:12:03.205Z,2.60
2019-05-06T18:17:08.798Z,2.70
2019-05-06T18:22:14.384Z,3.20
2019-05-06T18:27:19.918Z,4.03
2019-05-06T18:32:25.589Z,3.77
2019-05-06T18:37:33.106Z,3.02
2019-05-06T18:42:38.408Z,3.17
2019-05-06T18:47:43.999Z,2.92
2019-05-06T18:52:49.738Z,3.47
2019-05-06T18:57:55.383Z,2.90
2019-05-06T19:03:02.692Z,2.93
2019-05-06T19:08:19.531Z,3.30
2019-05-06T19:13:26.067Z,3.47
2019-05-06T19:23:45.296Z,3.90
2019-05-06T19:28:52.705Z,4.63
2019-05-06T19:33:58.223Z,4.07
2019-05-06T19:39:09.967Z,3.90
2019-05-06T19:44:15.437Z,4.87
2019-05-06T19:49:21.698Z,3.43
2019-05-06T19:54:33.077Z,3.33
2019-05-06T19:59:38.859Z,3.40
2019-05-06T20:04:46.969Z,4.93
2019-05-06T20:10:04.012Z,5.00
2019-05-06T20:15:19.266Z,4.77
2019-05-06T20:20:25.312Z,4.40
2019-05-06T20:25:31.315Z,4.37
2019-05-06T20:30:38.494Z,4.20
2019-05-06T20:35:44.237Z,4.78
2019-05-06T20:40:52.195Z,5.20
2019-05-06T20:45:57.886Z,6.53
2019-05-06T20:51:03.820Z,6.17
2019-05-06T20:56:09.465Z,6.43
2019-05-06T21:01:15.347Z,5.57
2019-05-06T21:06:22.550Z,5.93
2019-05-06T21:11:29.409Z,6.43
2019-05-06T21:16:36.669Z,6.33
2019-05-06T21:21:43.304Z,6.43
2019-05-06T21:26:50.424Z,7.73
2019-05-06T21:31:57.214Z,7.17
2019-05-06T21:37:04.678Z,8.43
2019-05-06T21:42:12.181Z,7.40
2019-05-06T21:47:18.438Z,6.20
2019-05-06T21:52:36.354Z,6.50
2019-05-06T21:57:33.009Z,6.17
2019-05-06T22:02:42.173Z,5.77
2019-05-06T22:07:48.810Z,6.87
2019-05-06T22:12:55.871Z,6.70
2019-05-06T22:18:02.645Z,7.90
2019-05-06T22:23:09.259Z,5.40
2019-05-06T22:28:15.297Z,6.30
2019-05-06T22:33:22.458Z,6.57
2019-05-06T22:38:28.465Z,6.63
2019-05-06T22:43:34.076Z,6.37
2019-05-06T22:48:40.226Z,7.17
2019-05-06T22:53:46.174Z,5.33
2019-05-06T22:58:52.567Z,5.33
2019-05-06T23:03:58.665Z,5.70
2019-05-06T23:09:06.236Z,5.07
2019-05-06T23:14:12.429Z,4.30
2019-05-06T23:19:18.953Z,5.23
2019-05-06T23:24:24.408Z,5.00
2019-05-06T23:29:30.175Z,5.05
2019-05-06T23:34:35.628Z,5.20
2019-05-06T23:40:03.355Z,5.60
2019-05-06T23:45:26.531Z,5.37
2019-05-06T23:50:49.461Z,5.30
2019-05-06T23:56:13.190Z,5.33
